Time;durP1;ratioP1;P1;durP2;ratioP2;P2;SDS_P1;SDS_P2;PMS_P1;PMS_P2;Temp;Humidity;BMP_temperature;BMP_pressure;BME280_temperature;BME280_humidity;BME280_pressure;Samples;Min_cycle;Max_cycle;Signal;HPM_P1;HPM_P2
2023/08/21 00:02:46;;;;;;;28.77;13.40;;;28.60;73.90;;;;;;5050427;28;20523;-69
2023/08/21 00:05:50;;;;;;;27.10;14.25;;;28.60;74.50;;;;;;5050217;28;20060;-68
2023/08/21 02:33:35;;;;;;;16.10;14.32;;;27.80;76.00;;;;;;5108618;27;20391;-69
2023/08/21 02:36:39;;;;;;;18.40;15.45;;;27.60;77.20;;;;;;5108004;28;20499;-69
2023/08/21 02:39:43;;;;;;;19.25;14.60;;;27.60;77.20;;;;;;5108971;28;20596;-69
2023/08/21 02:42:47;;;;;;;24.50;17.58;;;27.70;77.20;;;;;;5107576;28;20070;-69
2023/08/21 02:45:50;;;;;;;21.05;17.55;;;27.60;77.20;;;;;;5108472;28;20043;-69
2023/08/21 02:48:54;;;;;;;21.33;17.08;;;27.60;77.00;;;;;;5107783;28;20046;-68
2023/08/21 02:51:59;;;;;;;20.98;17.38;;;27.60;77.10;;;;;;5107541;28;20039;-69
2023/08/21 02:55:04;;;;;;;21.17;15.70;;;27.60;77.10;;;;;;5107700;28;20340;-69
2023/08/21 02:58:08;;;;;;;18.10;14.85;;;27.60;77.20;;;;;;5108247;28;20070;-69
2023/08/21 03:01:12;;;;;;;17.48;14.55;;;27.60;77.30;;;;;;5108283;28;20043;-69
2023/08/21 03:04:16;;;;;;;24.00;16.98;;;27.60;78.00;;;;;;5108070;28;20043;-69
2023/08/21 03:07:21;;;;;;;20.35;15.82;;;27.50;77.70;;;;;;5108331;28;20047;-69
2023/08/21 03:10:24;;;;;;;18.50;15.73;;;27.40;77.70;;;;;;5108336;28;20051;-69
2023/08/21 03:13:28;;;;;;;18.73;15.55;;;27.30;78.00;;;;;;5108061;28;20038;-69
2023/08/21 03:16:32;;;;;;;21.75;15.20;;;27.20;78.10;;;;;;5108031;28;20055;-69
2023/08/21 03:19:36;;;;;;;17.83;15.13;;;27.10;78.20;;;;;;5107052;28;20038;-69
2023/08/21 03:22:40;;;;;;;18.83;14.13;;;27.10;78.30;;;;;;5107323;28;20674;-69
2023/08/21 03:25:44;;;;;;;16.45;14.00;;;27.20;78.10;;;;;;5107979;28;20043;-69
2023/08/21 03:28:48;;;;;;;16.38;13.57;;;27.40;77.60;;;;;;5107923;28;20050;-69
2023/08/21 03:31:56;;;;;;;15.27;13.32;;;27.50;77.40;;;;;;5106721;28;20050;-69
2023/08/21 03:35:00;;;;;;;17.88;14.52;;;27.60;77.10;;;;;;5093078;28;20039;-69
2023/08/21 03:38:04;;;;;;;14.98;13.48;;;27.70;77.10;;;;;;5093096;28;20514;-69
2023/08/21 03:41:16;;;;;;;25.08;15.48;;;27.80;77.60;;;;;;5093100;28;20054;-69
2023/08/21 03:44:20;;;;;;;26.17;14.93;;;27.90;77.60;;;;;;5093673;28;20530;-69
2023/08/21 03:47:24;;;;;;;16.90;13.60;;;27.80;77.60;;;;;;5092888;28;20047;-69
2023/08/21 03:50:35;;;;;;;20.07;14.13;;;27.80;77.80;;;;;;5093018;28;20459;-69
2023/08/21 03:53:39;;;;;;;41.20;16.85;;;27.70;77.90;;;;;;5092953;28;20043;-69
2023/08/21 03:56:43;;;;;;;23.95;14.55;;;27.70;78.00;;;;;;5092787;28;20050;-69
2023/08/21 03:59:47;;;;;;;33.10;14.50;;;27.70;78.00;;;;;;5093817;28;20426;-69
2023/08/21 04:02:51;;;;;;;19.05;14.52;;;27.60;78.50;;;;;;5092466;28;20054;-69
2023/08/21 04:05:56;;;;;;;25.75;14.93;;;27.60;78.50;;;;;;5093390;28;20391;-69
2023/08/21 04:09:00;;;;;;;32.88;15.32;;;27.50;78.60;;;;;;5093316;28;20411;-69
2023/08/21 04:12:04;;;;;;;20.60;14.05;;;27.60;78.50;;;;;;5093295;28;20095;-69
2023/08/21 04:15:08;;;;;;;23.60;14.10;;;27.60;78.70;;;;;;5093147;28;20039;-69
2023/08/21 04:18:12;;;;;;;20.80;13.38;;;27.60;78.10;;;;;;5092301;28;20387;-69
2023/08/21 04:21:17;;;;;;;19.90;14.38;;;27.70;78.10;;;;;;5093125;28;20043;-69
2023/08/21 04:24:20;;;;;;;16.63;13.50;;;27.80;77.90;;;;;;5092791;28;20047;-69
2023/08/21 04:27:24;;;;;;;17.42;13.35;;;27.80;77.80;;;;;;5093100;28;20051;-69
2023/08/21 04:30:29;;;;;;;25.20;13.80;;;27.80;78.00;;;;;;5092026;28;20043;-69
2023/08/21 04:33:34;;;;;;;17.48;13.20;;;27.70;78.30;;;;;;5079946;28;20611;-69
2023/08/21 04:36:38;;;;;;;19.80;13.27;;;27.70;77.90;;;;;;5091887;28;20537;-69
2023/08/21 04:39:42;;;;;;;20.58;12.38;;;27.80;77.80;;;;;;5092018;28;20055;-69
2023/08/21 04:42:47;;;;;;;18.95;13.00;;;27.90;77.60;;;;;;5091535;28;20055;-69
2023/08/21 04:45:54;;;;;;;18.67;13.55;;;28.00;77.60;;;;;;5090618;28;20035;-69
2023/08/21 04:49:00;;;;;;;17.83;13.45;;;28.00;78.50;;;;;;5091975;28;20047;-69
2023/08/21 04:52:05;;;;;;;14.40;12.68;;;28.10;77.60;;;;;;5091832;28;20043;-69
2023/08/21 04:55:09;;;;;;;22.15;13.85;;;28.20;77.60;;;;;;5091864;28;20047;-69
2023/08/21 04:58:15;;;;;;;22.00;13.10;;;28.30;77.90;;;;;;5091557;28;20522;-69
2023/08/21 05:01:20;;;;;;;33.00;14.55;;;28.50;77.80;;;;;;5091718;28;20478;-69
2023/08/21 05:04:26;;;;;;;27.98;14.00;;;28.90;77.50;;;;;;5091203;28;20411;-69
2023/08/21 05:07:31;;;;;;;23.58;13.65;;;29.10;77.30;;;;;;5091266;28;20399;-69
2023/08/21 05:10:36;;;;;;;21.02;14.40;;;29.10;77.50;;;;;;5091457;28;20051;-69
2023/08/21 05:13:40;;;;;;;31.35;14.00;;;29.20;77.90;;;;;;5092119;28;20039;-69
2023/08/21 05:16:48;;;;;;;35.30;14.05;;;29.40;77.30;;;;;;5091477;28;20527;-69
2023/08/21 05:19:52;;;;;;;38.03;15.32;;;29.90;75.80;;;;;;5091585;28;20197;-69
2023/08/21 05:22:59;;;;;;;31.27;14.20;;;30.10;75.60;;;;;;5090864;28;20513;-69
2023/08/21 05:26:03;;;;;;;48.22;14.45;;;30.60;75.60;;;;;;5091860;28;20036;-69
2023/08/21 05:29:07;;;;;;;31.90;13.80;;;31.60;73.70;;;;;;5091176;28;20046;-69
2023/08/21 05:32:11;;;;;;;42.70;14.38;;;32.60;72.00;;;;;;5091576;28;20063;-69
2023/08/21 05:35:15;;;;;;;25.80;12.75;;;33.30;70.80;;;;;;5091168;28;20043;-69
2023/08/21 05:38:20;;;;;;;22.13;11.88;;;33.50;68.90;;;;;;5090936;28;20043;-69
2023/08/21 05:41:24;;;;;;;24.63;13.05;;;33.70;69.10;;;;;;5091013;28;20043;-69
2023/08/21 05:44:29;;;;;;;22.48;13.32;;;33.50;68.60;;;;;;5090700;28;20538;-69
2023/08/21 05:47:34;;;;;;;27.60;13.57;;;33.60;68.90;;;;;;5090989;28;20356;-69
2023/08/21 05:50:38;;;;;;;19.05;12.43;;;33.40;69.90;;;;;;5090783;28;20047;-69
2023/08/21 05:53:42;;;;;;;21.77;14.30;;;33.00;69.90;;;;;;5091604;28;20502;-69
2023/08/21 05:56:46;;;;;;;19.67;14.50;;;32.90;69.70;;;;;;5091236;28;20067;-68
2023/08/21 05:59:52;;;;;;;18.63;13.20;;;32.80;69.90;;;;;;5091243;28;20045;-69
2023/08/21 06:02:56;;;;;;;18.17;12.82;;;32.60;70.30;;;;;;5090921;28;20055;-69
2023/08/21 06:06:17;;;;;;;19.65;12.93;;;32.40;70.60;;;;;;5090399;28;20509;-69
2023/08/21 06:09:22;;;;;;;19.67;12.85;;;32.40;71.10;;;;;;5091112;28;20058;-69
2023/08/21 06:12:26;;;;;;;27.70;13.38;;;32.40;71.20;;;;;;5090062;28;20039;-71
2023/08/21 06:15:31;;;;;;;21.65;14.65;;;32.30;71.80;;;;;;5089169;28;20046;-71
2023/08/21 06:18:35;;;;;;;25.38;14.45;;;32.20;71.90;;;;;;5090172;28;20055;-70
2023/08/21 06:21:39;;;;;;;27.88;14.45;;;32.20;71.70;;;;;;5090029;28;20632;-71
2023/08/21 06:24:44;;;;;;;22.75;14.48;;;32.30;71.70;;;;;;5090475;28;20118;-70
2023/08/21 06:27:51;;;;;;;21.75;13.20;;;32.30;71.70;;;;;;5090333;28;20063;-71
2023/08/21 06:31:07;;;;;;;15.65;13.45;;;32.30;71.40;;;;;;5091177;28;20047;-71
2023/08/21 06:34:11;;;;;;;25.52;16.48;;;32.20;71.70;;;;;;5090183;28;20105;-70
2023/08/21 06:37:15;;;;;;;27.13;13.75;;;32.20;71.70;;;;;;5091001;28;20371;-71
2023/08/21 06:40:19;;;;;;;18.73;13.18;;;32.40;72.20;;;;;;5090295;28;20054;-68
2023/08/21 06:43:25;;;;;;;36.55;12.93;;;32.50;71.60;;;;;;5089949;28;20051;-70
2023/08/21 06:46:29;;;;;;;22.27;13.27;;;32.40;71.70;;;;;;5090206;28;20043;-69
2023/08/21 06:49:32;;;;;;;20.58;13.55;;;32.40;71.80;;;;;;5090195;28;20502;-70
2023/08/21 06:52:36;;;;;;;21.13;13.75;;;32.50;72.20;;;;;;5090851;28;20066;-71
2023/08/21 06:55:41;;;;;;;24.17;13.52;;;32.60;71.60;;;;;;5090587;28;20031;-68
2023/08/21 06:58:44;;;;;;;22.55;13.20;;;32.70;71.60;;;;;;5090739;28;20055;-67
2023/08/21 07:01:48;;;;;;;27.10;13.23;;;32.80;71.50;;;;;;5090756;28;20047;-66
2023/08/21 07:04:52;;;;;;;19.13;13.25;;;33.10;71.20;;;;;;5090900;28;20051;-68
2023/08/21 07:07:57;;;;;;;28.92;12.63;;;33.30;70.90;;;;;;5091188;28;20125;-68
2023/08/21 07:11:04;;;;;;;19.70;13.57;;;33.50;71.30;;;;;;5094715;28;20047;-68
2023/08/21 07:14:08;;;;;;;31.15;13.70;;;33.60;70.20;;;;;;5094198;28;20039;-68
2023/08/21 07:17:11;;;;;;;20.55;12.80;;;33.80;69.10;;;;;;5094564;28;20051;-68
2023/08/21 07:20:15;;;;;;;31.15;12.93;;;34.10;69.50;;;;;;5094455;28;20043;-68
2023/08/21 07:23:19;;;;;;;26.13;12.10;;;34.50;68.60;;;;;;5093938;28;20154;-68
2023/08/21 07:26:23;;;;;;;23.27;13.23;;;34.80;68.10;;;;;;5094108;28;20035;-67
2023/08/21 07:29:30;;;;;;;31.45;13.88;;;35.10;67.20;;;;;;5094463;28;20070;-69
2023/08/21 07:32:34;;;;;;;38.90;13.98;;;35.10;66.50;;;;;;5093789;28;20055;-70
2023/08/21 07:35:41;;;;;;;19.92;12.13;;;34.90;66.70;;;;;;5094288;28;20051;-70
2023/08/21 07:38:45;;;;;;;22.52;12.13;;;35.00;67.40;;;;;;5094329;28;20047;-72
2023/08/21 07:41:49;;;;;;;22.15;12.55;;;34.80;67.20;;;;;;5093863;28;20047;-70
2023/08/21 07:44:53;;;;;;;16.17;11.95;;;34.50;68.40;;;;;;5092935;28;20058;-70
2023/08/21 07:47:57;;;;;;;20.73;12.57;;;34.60;68.90;;;;;;5093856;28;20055;-72
2023/08/21 07:51:02;;;;;;;16.38;11.80;;;34.70;67.60;;;;;;5093903;28;20047;-72
2023/08/21 07:54:06;;;;;;;19.33;11.65;;;34.60;67.70;;;;;;5093695;28;20045;-69
2023/08/21 07:57:10;;;;;;;26.40;13.05;;;34.50;67.70;;;;;;5093547;28;20051;-69
2023/08/21 08:00:14;;;;;;;25.77;13.32;;;34.40;68.20;;;;;;5093465;28;20040;-74
2023/08/21 08:03:18;;;;;;;20.55;12.95;;;34.20;68.50;;;;;;5093159;28;20051;-74
2023/08/21 08:06:23;;;;;;;26.25;13.13;;;34.20;68.30;;;;;;5093166;28;20062;-73
2023/08/21 08:09:26;;;;;;;18.15;13.40;;;34.10;68.80;;;;;;5093213;28;20054;-72
2023/08/21 08:12:33;;;;;;;18.27;13.77;;;34.10;68.50;;;;;;5093190;28;20410;-72
2023/08/21 08:15:37;;;;;;;16.73;12.73;;;34.00;68.50;;;;;;5091869;28;20419;-73
2023/08/21 08:18:41;;;;;;;25.33;13.00;;;34.00;69.00;;;;;;5093098;28;20383;-70
2023/08/21 08:21:45;;;;;;;22.15;13.35;;;34.20;68.60;;;;;;5092571;28;20043;-72
2023/08/21 08:24:50;;;;;;;32.72;13.70;;;34.20;68.40;;;;;;5092726;28;20505;-69
2023/08/21 08:27:54;;;;;;;24.35;13.20;;;34.20;68.60;;;;;;5092766;28;20043;-72
2023/08/21 08:30:58;;;;;;;19.00;12.45;;;33.90;68.60;;;;;;5092614;28;20395;-71
2023/08/21 08:34:02;;;;;;;29.67;13.32;;;33.90;68.20;;;;;;5092493;28;20051;-70
2023/08/21 08:37:06;;;;;;;22.48;12.65;;;33.80;68.70;;;;;;5093075;28;20053;-69
2023/08/21 08:40:13;;;;;;;19.75;12.48;;;33.90;68.40;;;;;;5091970;28;20051;-71
2023/08/21 08:43:17;;;;;;;28.52;13.90;;;34.00;67.90;;;;;;5092444;28;20058;-71
2023/08/21 08:46:23;;;;;;;22.27;12.40;;;34.00;68.00;;;;;;5092841;28;20047;-66
2023/08/21 08:49:27;;;;;;;28.10;13.23;;;34.10;68.10;;;;;;5092449;28;20506;-67
2023/08/21 08:52:36;;;;;;;32.88;12.25;;;34.00;67.60;;;;;;5092282;28;20185;-66
2023/08/21 08:55:40;;;;;;;27.35;14.07;;;34.10;67.90;;;;;;5091666;28;20062;-68
2023/08/21 08:58:43;;;;;;;29.75;12.90;;;34.10;68.00;;;;;;5092358;28;20047;-67
2023/08/21 09:01:48;;;;;;;27.33;12.48;;;34.10;68.30;;;;;;5092079;28;20650;-68
2023/08/21 09:04:52;;;;;;;19.02;13.88;;;34.30;68.30;;;;;;5092207;28;20047;-68
2023/08/21 09:08:18;;;;;;;22.08;13.05;;;34.40;67.80;;;;;;5092365;28;20043;-68
2023/08/21 09:11:22;;;;;;;26.88;13.35;;;34.50;67.40;;;;;;5091997;28;20039;-67
2023/08/21 09:14:28;;;;;;;23.92;13.82;;;34.60;67.60;;;;;;5092487;28;20336;-68
2023/08/21 09:17:33;;;;;;;33.20;13.68;;;34.70;66.50;;;;;;5092089;28;20043;-68
2023/08/21 09:20:37;;;;;;;22.73;12.63;;;34.80;66.60;;;;;;5091999;28;20163;-68
2023/08/21 09:23:41;;;;;;;24.98;12.73;;;34.80;66.30;;;;;;5091562;28;20059;-68
2023/08/21 09:26:45;;;;;;;21.30;13.63;;;34.60;66.30;;;;;;5091982;28;20043;-68
2023/08/21 09:29:49;;;;;;;21.15;12.93;;;34.50;67.10;;;;;;5092059;28;20043;-68
2023/08/21 09:33:04;;;;;;;22.80;12.82;;;34.60;67.40;;;;;;5091328;28;20051;-68
2023/08/21 09:36:11;;;;;;;35.45;13.45;;;34.60;66.40;;;;;;5092183;28;20051;-69
2023/08/21 09:39:17;;;;;;;22.25;13.77;;;34.50;67.00;;;;;;5092002;28;20047;-69
2023/08/21 09:42:23;;;;;;;27.30;12.27;;;34.60;66.60;;;;;;5091469;28;20117;-69
2023/08/21 09:45:29;;;;;;;16.42;12.30;;;34.60;66.60;;;;;;5091827;28;20078;-69
2023/08/21 09:48:34;;;;;;;22.73;12.73;;;34.90;66.30;;;;;;5091476;28;20051;-69
2023/08/21 09:51:38;;;;;;;27.35;12.57;;;35.10;65.50;;;;;;5091606;28;20054;-69
2023/08/21 09:54:42;;;;;;;22.20;10.80;;;35.80;64.40;;;;;;5092029;28;20051;-68
2023/08/21 09:57:48;;;;;;;15.00;12.13;;;36.50;63.70;;;;;;5092016;28;20521;-68
2023/08/21 10:00:57;;;;;;;26.05;11.98;;;36.90;63.10;;;;;;5091187;28;20051;-68
2023/08/21 10:04:02;;;;;;;32.50;12.30;;;36.90;63.10;;;;;;5091409;28;20054;-68
2023/08/21 10:07:10;;;;;;;21.17;12.30;;;37.10;63.00;;;;;;5091057;28;20047;-68
2023/08/21 10:10:16;;;;;;;20.80;10.75;;;36.60;63.10;;;;;;5090992;28;20063;-69
2023/08/21 10:13:20;;;;;;;27.20;12.05;;;36.10;63.30;;;;;;5091076;28;20047;-69
2023/08/21 10:16:25;;;;;;;22.00;11.88;;;35.70;64.20;;;;;;5090912;28;20043;-69
2023/08/21 10:19:32;;;;;;;12.50;10.93;;;35.40;65.30;;;;;;5091139;28;20051;-68
2023/08/21 10:22:43;;;;;;;21.50;12.25;;;35.20;64.70;;;;;;5090513;28;20122;-68
2023/08/21 10:25:47;;;;;;;18.02;11.07;;;35.00;65.70;;;;;;5091195;28;20454;-68
2023/08/21 10:28:58;;;;;;;19.98;11.98;;;34.80;65.50;;;;;;5091149;28;20047;-69
2023/08/21 10:32:03;;;;;;;20.90;12.13;;;34.70;66.30;;;;;;5090922;28;20062;-68
2023/08/21 10:35:14;;;;;;;18.52;12.55;;;34.60;66.40;;;;;;5091098;28;20078;-69
2023/08/21 10:38:18;;;;;;;19.63;11.73;;;34.50;66.40;;;;;;5089981;28;20047;-68
2023/08/21 10:41:26;;;;;;;18.10;12.15;;;34.40;66.10;;;;;;5090832;28;20047;-68
2023/08/21 10:44:58;;;;;;;15.68;12.57;;;34.50;67.10;;;;;;5093916;28;20055;-68
2023/08/21 10:48:02;;;;;;;15.32;12.05;;;34.70;66.60;;;;;;5095039;28;20055;-68
2023/08/21 10:51:09;;;;;;;17.17;10.55;;;35.00;66.50;;;;;;5094986;28;20506;-68
2023/08/21 10:54:14;;;;;;;15.43;10.90;;;35.20;65.40;;;;;;5094738;28;20059;-68
2023/08/21 10:57:18;;;;;;;19.17;11.70;;;35.30;65.20;;;;;;5094811;28;20506;-68
2023/08/21 11:00:22;;;;;;;17.70;11.75;;;35.50;65.00;;;;;;5094825;28;20043;-69
2023/08/21 11:03:26;;;;;;;19.55;11.50;;;35.50;65.50;;;;;;5094283;28;20059;-69
2023/08/21 11:06:30;;;;;;;16.15;9.80;;;35.50;64.70;;;;;;5094392;28;20047;-69
2023/08/21 11:09:38;;;;;;;13.55;10.45;;;35.50;64.90;;;;;;5094461;28;20047;-68
2023/08/21 11:12:55;;;;;;;21.42;11.02;;;35.20;64.20;;;;;;5094401;28;20383;-68
2023/08/21 11:16:03;;;;;;;15.27;10.52;;;35.20;65.20;;;;;;5094376;28;20043;-68
2023/08/21 11:19:07;;;;;;;16.98;10.48;;;35.20;64.60;;;;;;5094228;28;20050;-68
2023/08/21 11:22:11;;;;;;;13.02;10.43;;;35.20;64.40;;;;;;5094056;28;20047;-68
2023/08/21 11:25:16;;;;;;;14.40;10.52;;;35.10;64.90;;;;;;5094463;28;20063;-68
2023/08/21 11:28:20;;;;;;;16.67;9.85;;;35.10;64.60;;;;;;5094392;28;20059;-68
2023/08/21 11:31:24;;;;;;;14.23;10.32;;;35.10;64.10;;;;;;5094204;28;20153;-68
2023/08/21 11:34:28;;;;;;;14.93;9.90;;;35.10;64.80;;;;;;5093940;28;20050;-69
2023/08/21 11:37:32;;;;;;;11.15;9.77;;;35.10;64.10;;;;;;5092837;28;20042;-68
2023/08/21 11:40:36;;;;;;;13.32;9.68;;;35.20;64.70;;;;;;5091808;28;20043;-68
2023/08/21 11:43:43;;;;;;;14.85;10.27;;;35.20;63.90;;;;;;5091802;28;20051;-68
2023/08/21 11:46:47;;;;;;;15.57;9.75;;;35.40;64.30;;;;;;5092644;28;20043;-68
2023/08/21 11:49:51;;;;;;;17.27;9.88;;;35.50;64.50;;;;;;5092510;28;20039;-69
2023/08/21 11:52:55;;;;;;;16.92;9.88;;;35.60;63.90;;;;;;5092699;28;20067;-68
2023/08/21 11:55:59;;;;;;;12.68;10.30;;;35.60;63.70;;;;;;5093851;28;20055;-69
2023/08/21 11:59:04;;;;;;;16.00;9.98;;;35.70;64.30;;;;;;5092781;28;20067;-69
2023/08/21 12:02:16;;;;;;;11.05;9.93;;;35.70;64.10;;;;;;5092414;28;20055;-68
2023/08/21 12:05:21;;;;;;;15.27;9.93;;;35.80;64.60;;;;;;5093403;28;20379;-68
2023/08/21 12:08:25;;;;;;;12.10;9.63;;;35.90;64.20;;;;;;5092942;28;20047;-68
2023/08/21 12:11:29;;;;;;;15.18;9.52;;;36.00;63.60;;;;;;5093598;28;20042;-69
2023/08/21 12:14:33;;;;;;;15.52;9.65;;;36.10;63.60;;;;;;5093395;28;20047;-68
2023/08/21 12:17:36;;;;;;;19.58;9.32;;;36.10;63.20;;;;;;5092403;28;20051;-68
2023/08/21 12:20:41;;;;;;;12.35;9.48;;;36.10;63.30;;;;;;5092745;28;20039;-68
2023/08/21 12:23:44;;;;;;;12.07;9.45;;;36.10;63.20;;;;;;5092998;28;20051;-68
2023/08/21 12:26:48;;;;;;;10.82;9.82;;;36.20;63.10;;;;;;5093211;28;20039;-68
2023/08/21 12:29:52;;;;;;;10.85;9.77;;;36.20;63.30;;;;;;5093311;28;20039;-68
2023/08/21 12:32:56;;;;;;;12.45;8.65;;;36.20;63.20;;;;;;5091979;28;20055;-68
2023/08/21 12:36:00;;;;;;;12.30;9.27;;;36.10;62.00;;;;;;5092870;28;20047;-68
2023/08/21 12:39:05;;;;;;;14.43;9.32;;;36.10;62.90;;;;;;5092180;28;20518;-68
2023/08/21 12:42:08;;;;;;;16.17;9.07;;;36.20;62.30;;;;;;5092753;28;20046;-68
2023/08/21 12:45:13;;;;;;;13.88;8.98;;;36.20;61.90;;;;;;5092823;28;20058;-68
2023/08/21 12:48:16;;;;;;;12.43;9.23;;;36.20;62.20;;;;;;5092462;28;20047;-69
2023/08/21 12:51:21;;;;;;;13.30;9.38;;;36.20;62.10;;;;;;5092607;28;20046;-69
2023/08/21 12:54:24;;;;;;;16.73;9.02;;;36.20;61.90;;;;;;5092492;28;20043;-70
2023/08/21 12:57:28;;;;;;;10.80;8.50;;;37.10;61.50;;;;;;5092451;28;20047;-67
2023/08/21 13:00:32;;;;;;;19.90;9.00;;;38.10;61.00;;;;;;5092281;28;20047;-67
2023/08/21 13:03:36;;;;;;;20.10;8.88;;;38.90;59.90;;;;;;5092273;28;20058;-66
2023/08/21 13:06:41;;;;;;;14.10;8.80;;;39.10;59.30;;;;;;5091109;28;20546;-67
2023/08/21 13:09:44;;;;;;;9.43;7.95;;;39.70;59.10;;;;;;5092146;28;20051;-66
2023/08/21 13:12:49;;;;;;;9.00;8.10;;;40.10;58.40;;;;;;5091946;28;20032;-66
2023/08/21 13:15:54;;;;;;;18.92;8.35;;;40.10;57.80;;;;;;5092225;28;20055;-67
2023/08/21 13:18:58;;;;;;;14.48;7.88;;;39.60;58.60;;;;;;5091818;28;20055;-67
2023/08/21 13:22:03;;;;;;;14.18;8.23;;;39.50;58.20;;;;;;5091741;28;20055;-67
2023/08/21 13:25:07;;;;;;;11.30;7.82;;;39.40;57.80;;;;;;5092093;28;20055;-68
2023/08/21 13:28:11;;;;;;;9.85;8.30;;;39.60;58.30;;;;;;5092001;28;20073;-67
2023/08/21 13:31:15;;;;;;;18.42;8.40;;;39.70;58.70;;;;;;5091599;28;20044;-67
2023/08/21 13:34:18;;;;;;;10.23;8.15;;;40.10;58.10;;;;;;5091777;28;20079;-67
2023/08/21 13:37:23;;;;;;;12.57;8.45;;;39.80;57.60;;;;;;5091701;28;20047;-67
2023/08/21 13:40:27;;;;;;;8.02;7.22;;;39.90;58.00;;;;;;5091987;28;20063;-67
2023/08/21 13:43:31;;;;;;;15.57;7.82;;;39.90;57.70;;;;;;5091605;28;20043;-67
2023/08/21 13:46:35;;;;;;;10.55;8.10;;;40.00;57.40;;;;;;5091676;28;20051;-67
2023/08/21 13:49:40;;;;;;;19.27;8.48;;;40.00;57.60;;;;;;5091305;28;20046;-67
2023/08/21 13:52:45;;;;;;;10.05;7.75;;;40.20;56.70;;;;;;5091620;28;20047;-68
2023/08/21 13:55:50;;;;;;;19.60;7.70;;;39.90;56.90;;;;;;5091443;28;20502;-67
2023/08/21 13:58:53;;;;;;;11.77;8.20;;;40.30;57.40;;;;;;5091397;28;20514;-68
2023/08/21 14:01:58;;;;;;;9.00;7.68;;;40.50;57.00;;;;;;5091276;28;20043;-68
2023/08/21 14:05:07;;;;;;;13.40;7.85;;;39.90;56.80;;;;;;5091227;28;20067;-67
2023/08/21 14:08:10;;;;;;;16.90;8.70;;;39.90;56.90;;;;;;5091075;28;20387;-66
2023/08/21 14:11:14;;;;;;;12.63;7.30;;;40.20;56.70;;;;;;5091448;28;20055;-67
2023/08/21 14:14:18;;;;;;;11.32;7.20;;;40.20;56.00;;;;;;5090951;28;20043;-67
2023/08/21 14:17:23;;;;;;;10.85;6.95;;;39.80;56.20;;;;;;5090946;28;20395;-68
2023/08/21 14:20:27;;;;;;;12.00;6.93;;;39.90;56.30;;;;;;5091099;28;20043;-67
2023/08/21 14:23:31;;;;;;;12.30;7.55;;;40.00;56.20;;;;;;5090810;28;20051;-68
2023/08/21 14:26:34;;;;;;;14.85;7.78;;;39.90;56.30;;;;;;5091321;28;20491;-68
2023/08/21 14:29:39;;;;;;;19.23;7.72;;;39.80;56.80;;;;;;5090903;28;20051;-67
2023/08/21 14:32:43;;;;;;;11.43;7.35;;;40.30;56.50;;;;;;5090706;28;20059;-68
2023/08/21 14:35:47;;;;;;;26.27;8.15;;;40.60;56.10;;;;;;5091036;28;20490;-68
2023/08/21 14:38:50;;;;;;;8.52;7.30;;;40.80;56.40;;;;;;5090531;28;20055;-68
2023/08/21 14:41:56;;;;;;;9.65;7.93;;;40.30;56.10;;;;;;5090718;28;20036;-69
2023/08/21 14:45:00;;;;;;;18.00;8.68;;;39.90;56.40;;;;;;5089971;28;20048;-67
2023/08/21 14:48:04;;;;;;;9.68;7.68;;;39.50;56.80;;;;;;5090929;28;20047;-68
2023/08/21 14:51:08;;;;;;;18.25;7.75;;;40.00;56.90;;;;;;5091000;28;20043;-68
2023/08/21 14:54:12;;;;;;;13.35;7.70;;;39.90;56.60;;;;;;5091011;28;20047;-68
2023/08/21 14:57:16;;;;;;;10.65;7.13;;;40.00;56.60;;;;;;5090438;28;20051;-70
2023/08/21 15:00:23;;;;;;;11.20;7.28;;;40.10;56.20;;;;;;5090691;28;20068;-68
2023/08/21 15:03:27;;;;;;;17.80;7.85;;;40.50;56.60;;;;;;5090099;28;20047;-68
2023/08/21 15:06:34;;;;;;;14.35;7.88;;;40.10;56.00;;;;;;5089692;28;20055;-68
2023/08/21 15:09:37;;;;;;;16.10;7.90;;;40.30;56.10;;;;;;5088024;28;20051;-68
2023/08/21 15:12:43;;;;;;;15.18;8.50;;;40.40;56.10;;;;;;5089014;28;20043;-68
2023/08/21 15:15:47;;;;;;;13.20;7.63;;;40.60;56.20;;;;;;5089514;28;20043;-68
2023/08/21 15:18:52;;;;;;;12.50;7.97;;;40.00;56.50;;;;;;5090315;28;20047;-69
2023/08/21 15:21:56;;;;;;;14.50;8.20;;;40.00;56.60;;;;;;5090506;28;20043;-68
2023/08/21 15:25:00;;;;;;;24.13;8.82;;;38.90;57.30;;;;;;5090567;28;20051;-68
2023/08/21 15:28:04;;;;;;;16.42;9.07;;;37.90;58.60;;;;;;5090690;28;20043;-68
2023/08/21 15:31:08;;;;;;;18.90;9.75;;;37.50;59.30;;;;;;5094251;28;20514;-68
2023/08/21 15:34:12;;;;;;;17.90;9.60;;;37.10;59.60;;;;;;5094103;28;20054;-68
2023/08/21 15:37:16;;;;;;;14.93;9.25;;;36.90;60.10;;;;;;5093591;28;20034;-68
2023/08/21 15:40:20;;;;;;;12.73;8.68;;;36.70;59.90;;;;;;5093794;28;20494;-69
2023/08/21 15:43:24;;;;;;;10.10;8.45;;;36.60;60.30;;;;;;5093885;28;20581;-69
2023/08/21 15:46:28;;;;;;;15.65;9.02;;;36.60;60.40;;;;;;5094138;28;20062;-68
2023/08/21 15:49:32;;;;;;;19.27;9.18;;;36.50;60.30;;;;;;5093973;28;20059;-69
2023/08/21 15:52:37;;;;;;;12.05;8.82;;;36.40;61.20;;;;;;5092752;28;20035;-67
2023/08/21 15:55:41;;;;;;;10.18;8.52;;;36.30;60.50;;;;;;5093719;28;20494;-68
2023/08/21 15:58:45;;;;;;;11.60;9.07;;;36.30;60.90;;;;;;5093606;28;20212;-68
2023/08/21 16:01:49;;;;;;;13.43;9.77;;;36.20;61.10;;;;;;5093731;28;20399;-68
2023/08/21 16:04:52;;;;;;;12.32;8.90;;;36.20;61.50;;;;;;5093357;28;20055;-67
2023/08/21 16:07:56;;;;;;;14.30;9.25;;;36.10;61.40;;;;;;5093202;28;20043;-67
2023/08/21 16:11:00;;;;;;;12.00;8.90;;;36.00;61.60;;;;;;5093522;28;20083;-66
2023/08/21 16:14:07;;;;;;;16.17;9.10;;;36.00;60.90;;;;;;5093411;28;20099;-68
2023/08/21 16:17:11;;;;;;;10.85;8.68;;;36.70;61.00;;;;;;5093147;28;20051;-68
2023/08/21 16:20:15;;;;;;;15.50;8.98;;;38.10;59.20;;;;;;5093301;28;20392;-68
2023/08/21 16:23:19;;;;;;;22.23;10.07;;;38.70;58.30;;;;;;5092589;28;20055;-68
2023/08/21 16:26:23;;;;;;;12.60;8.52;;;38.30;58.60;;;;;;5091475;28;20055;-68
2023/08/21 16:29:31;;;;;;;18.58;8.95;;;38.30;58.70;;;;;;5092981;28;20039;-68
2023/08/21 16:32:35;;;;;;;19.17;8.60;;;38.40;59.00;;;;;;5092202;28;20055;-68
2023/08/21 16:35:39;;;;;;;12.77;8.38;;;38.20;58.40;;;;;;5092636;28;20063;-68
2023/08/21 16:38:43;;;;;;;15.60;9.35;;;38.80;58.60;;;;;;5092347;28;20055;-68
2023/08/21 16:41:47;;;;;;;14.05;8.80;;;38.40;58.00;;;;;;5092769;28;20055;-68
2023/08/21 16:44:50;;;;;;;16.65;8.43;;;37.60;59.40;;;;;;5092409;28;20123;-68
2023/08/21 16:47:54;;;;;;;9.68;8.68;;;37.00;59.30;;;;;;5092558;28;20043;-68
2023/08/21 16:50:58;;;;;;;11.98;9.00;;;37.10;59.90;;;;;;5092257;28;20035;-68
2023/08/21 16:54:02;;;;;;;12.75;8.63;;;37.50;60.00;;;;;;5092505;28;20051;-68
2023/08/21 16:57:07;;;;;;;17.00;9.25;;;37.00;60.00;;;;;;5092312;28;20047;-68
2023/08/21 17:00:11;;;;;;;14.48;9.38;;;36.60;60.90;;;;;;5092200;28;20506;-68
2023/08/21 17:03:15;;;;;;;10.85;8.70;;;36.50;61.10;;;;;;5092159;28;20043;-67
2023/08/21 17:06:19;;;;;;;16.83;9.27;;;36.60;60.90;;;;;;5092014;28;20131;-70
2023/08/21 17:09:24;;;;;;;18.88;8.88;;;36.70;61.20;;;;;;5091810;28;20066;-71
2023/08/21 17:12:28;;;;;;;22.85;9.65;;;36.80;60.70;;;;;;5090699;28;20047;-71
2023/08/21 17:15:32;;;;;;;13.85;9.60;;;36.20;61.20;;;;;;5091769;28;20047;-71
2023/08/21 17:18:36;;;;;;;13.65;9.80;;;35.70;62.00;;;;;;5091794;28;20047;-71
2023/08/21 17:21:40;;;;;;;14.85;9.70;;;35.30;62.50;;;;;;5091659;28;20062;-71
2023/08/21 17:24:44;;;;;;;14.88;9.88;;;35.00;63.80;;;;;;5091705;28;20042;-70
2023/08/21 17:27:48;;;;;;;14.55;9.57;;;34.90;63.30;;;;;;5091992;28;20219;-71
2023/08/21 17:30:53;;;;;;;14.93;10.23;;;34.70;63.60;;;;;;5091703;28;20039;-71
2023/08/21 17:33:57;;;;;;;14.00;9.90;;;34.60;63.80;;;;;;5091655;28;20047;-71
2023/08/21 17:37:01;;;;;;;16.27;10.02;;;34.50;63.90;;;;;;5091012;28;20422;-71
2023/08/21 17:40:07;;;;;;;14.75;9.32;;;34.30;64.00;;;;;;5091055;28;20043;-71
2023/08/21 17:43:11;;;;;;;20.08;9.98;;;34.30;64.00;;;;;;5091185;28;20051;-71
2023/08/21 17:46:16;;;;;;;13.95;10.23;;;34.20;64.00;;;;;;5091327;28;20059;-71
2023/08/21 17:49:20;;;;;;;14.15;9.98;;;34.10;64.30;;;;;;5091106;28;20043;-70
2023/08/21 17:52:24;;;;;;;15.00;9.98;;;34.00;64.50;;;;;;5090496;28;20051;-71
2023/08/21 17:55:30;;;;;;;14.18;9.80;;;33.90;64.20;;;;;;5091389;28;20061;-71
2023/08/21 17:58:54;;;;;;;17.55;11.13;;;33.90;64.10;;;;;;5090344;28;20054;-71
2023/08/21 18:01:59;;;;;;;15.00;9.90;;;33.80;64.20;;;;;;5091358;28;20098;-71
2023/08/21 18:05:05;;;;;;;12.40;10.52;;;33.70;64.40;;;;;;5090726;28;20047;-71
2023/08/21 18:08:09;;;;;;;20.50;9.68;;;33.70;64.60;;;;;;5091046;28;20047;-71